createdAt,value
2016-09-06T00:00:18.445Z,12.7
2016-09-06T00:01:18.165Z,12.69
2016-09-06T00:02:18.178Z,12.76
2016-09-06T00:03:17.948Z,12.72
2016-09-06T00:04:18.259Z,12.73
2016-09-06T00:05:18.565Z,12.8
2016-09-06T00:06:18.262Z,12.83
2016-09-06T00:07:18.276Z,12.81
2016-09-06T00:08:18.615Z,12.75
2016-09-06T00:09:18.649Z,12.75
2016-09-06T00:10:18.032Z,12.75
2016-09-06T00:11:18.382Z,12.75
2016-09-06T00:12:18.431Z,12.65
2016-09-06T00:13:18.726Z,12.73
2016-09-06T00:14:18.436Z,12.58
2016-09-06T00:15:18.765Z,12.58
2016-09-06T00:16:18.788Z,12.61
2016-09-06T00:17:18.797Z,12.57
2016-09-06T00:18:18.507Z,12.51
2016-09-06T00:19:18.527Z,12.51
2016-09-06T00:20:18.886Z,12.39
2016-09-06T00:21:18.872Z,12.44
2016-09-06T00:22:18.586Z,12.33
2016-09-06T00:23:18.926Z,12.32
2016-09-06T00:24:18.950Z,12.26
2016-09-06T00:25:18.344Z,12.32
2016-09-06T00:26:18.999Z,12.26
2016-09-06T00:27:19.026Z,12.23
2016-09-06T00:28:18.708Z,12.25
2016-09-06T00:29:18.426Z,12.25
2016-09-06T00:30:18.746Z,12.23
2016-09-06T00:31:18.501Z,12.28
2016-09-06T00:32:19.102Z,12.25
2016-09-06T00:33:18.819Z,12.29
2016-09-06T00:34:19.135Z,12.3
2016-09-06T00:35:18.878Z,12.36
2016-09-06T00:36:19.179Z,12.3
2016-09-06T00:37:18.904Z,12.3
2016-09-06T00:38:18.911Z,12.3
2016-09-06T00:39:19.254Z,12.29
2016-09-06T00:40:19.273Z,12.3
2016-09-06T00:41:19.299Z,12.28
2016-09-06T00:42:19.323Z,12.3
2016-09-06T00:43:19.347Z,12.3
2016-09-06T00:44:19.047Z,12.3
2016-09-06T00:45:19.057Z,12.29
2016-09-06T00:46:19.396Z,12.15
2016-09-06T00:47:19.092Z,12.26
2016-09-06T00:48:19.123Z,12.17
2016-09-06T00:49:19.144Z,12.11
2016-09-06T00:50:19.164Z,12.03
2016-09-06T00:51:19.520Z,11.95
2016-09-06T00:52:19.627Z,11.96
2016-09-06T00:53:19.532Z,11.97
2016-09-06T00:54:19.571Z,11.95
2016-09-06T00:55:19.589Z,11.99
2016-09-06T00:56:19.598Z,12.02
2016-09-06T00:57:19.383Z,11.97
2016-09-06T00:58:19.324Z,11.96
2016-09-06T00:59:19.441Z,12.08
2016-09-06T01:00:19.681Z,12.05
2016-09-06T01:01:19.385Z,12.18
2016-09-06T01:02:19.394Z,12.2
2016-09-06T01:03:19.829Z,12.17
2016-09-06T01:04:19.876Z,12.17
2016-09-06T01:05:19.474Z,12.17
2016-09-06T01:06:19.471Z,12.12
2016-09-06T01:07:19.520Z,12.14
2016-09-06T01:08:19.840Z,12.25
2016-09-06T01:09:19.655Z,12.25
2016-09-06T01:10:19.892Z,12.15
2016-09-06T01:11:19.893Z,12.21
2016-09-06T01:12:19.705Z,12.26
2016-09-06T01:13:19.939Z,12.26
2016-09-06T01:14:19.744Z,12.15
2016-09-06T01:15:19.978Z,12.17
2016-09-06T01:16:20.006Z,12.15
2016-09-06T01:17:19.703Z,12.11
2016-09-06T01:18:19.723Z,12.08
2016-09-06T01:19:20.044Z,12.12
2016-09-06T01:20:20.104Z,12.15
2016-09-06T01:21:19.797Z,12.14
2016-09-06T01:22:20.137Z,12.2
2016-09-06T01:23:20.124Z,12.1
2016-09-06T01:24:20.156Z,12.15
2016-09-06T01:25:20.215Z,12.15
2016-09-06T01:26:20.286Z,12.07
2016-09-06T01:27:19.949Z,12.02
2016-09-06T01:28:20.241Z,11.99
2016-09-06T01:29:20.268Z,12.08
2016-09-06T01:30:19.965Z,12.02
2016-09-06T01:31:20.357Z,12.08
2016-09-06T01:32:20.316Z,12.08
2016-09-06T01:33:19.706Z,12
2016-09-06T01:34:20.057Z,12.07
2016-09-06T01:35:20.378Z,12.14
2016-09-06T01:36:20.399Z,12.07
2016-09-06T01:37:20.114Z,12.02
2016-09-06T01:38:20.444Z,11.96
2016-09-06T01:39:20.529Z,12.03
2016-09-06T01:40:20.488Z,11.91
2016-09-06T01:41:20.757Z,12
2016-09-06T01:42:20.194Z,11.93
2016-09-06T01:43:20.558Z,11.91
2016-09-06T01:44:19.949Z,11.88
2016-09-06T01:45:20.277Z,11.85
2016-09-06T01:46:19.968Z,11.88
2016-09-06T01:47:20.630Z,11.81
2016-09-06T01:48:20.328Z,11.85
2016-09-06T01:49:20.667Z,11.89
2016-09-06T01:50:20.391Z,11.81
2016-09-06T01:51:20.720Z,11.81
2016-09-06T01:52:20.410Z,11.83
2016-09-06T01:53:20.419Z,11.8
2016-09-06T01:54:20.755Z,11.71
2016-09-06T01:55:20.777Z,11.73
2016-09-06T01:56:20.790Z,11.74
2016-09-06T01:57:20.507Z,11.74
2016-09-06T01:58:20.523Z,11.77
2016-09-06T01:59:20.544Z,11.83
2016-09-06T02:00:20.584Z,11.74
2016-09-06T02:01:20.584Z,11.73
2016-09-06T02:02:20.594Z,11.76
2016-09-06T02:03:20.949Z,11.74
2016-09-06T02:04:20.966Z,11.74
2016-09-06T02:05:20.676Z,11.73
2016-09-06T02:06:21.018Z,11.7
2016-09-06T02:07:20.721Z,11.7
2016-09-06T02:08:21.057Z,11.7
2016-09-06T02:09:20.757Z,11.73
2016-09-06T02:10:21.085Z,11.73
2016-09-06T02:11:21.084Z,11.71
2016-09-06T02:12:21.139Z,11.78
2016-09-06T02:13:20.836Z,11.74
2016-09-06T02:14:21.153Z,11.68
2016-09-06T02:15:20.866Z,11.73
2016-09-06T02:16:21.201Z,11.7
2016-09-06T02:17:21.220Z,11.6
2016-09-06T02:18:20.915Z,11.67
2016-09-06T02:19:21.258Z,11.7
2016-09-06T02:20:21.281Z,11.71
2016-09-06T02:21:20.994Z,11.58
2016-09-06T02:22:20.991Z,11.68
2016-09-06T02:23:21.325Z,11.59
2016-09-06T02:24:21.139Z,11.48
2016-09-06T02:25:21.368Z,11.58
2016-09-06T02:26:21.387Z,11.6
2016-09-06T02:27:21.119Z,11.59
2016-09-06T02:28:21.488Z,11.44
2016-09-06T02:29:21.143Z,11.41
2016-09-06T02:30:21.220Z,11.49
2016-09-06T02:31:21.229Z,11.45
2016-09-06T02:32:21.509Z,11.49
2016-09-06T02:33:21.218Z,11.59
2016-09-06T02:34:21.566Z,11.56
2016-09-06T02:35:21.570Z,11.55
2016-09-06T02:36:21.600Z,11.55
2016-09-06T02:37:21.395Z,11.52
2016-09-06T02:38:21.627Z,11.56
2016-09-06T02:39:21.394Z,11.49
2016-09-06T02:40:21.689Z,11.55
2016-09-06T02:41:21.406Z,11.56
2016-09-06T02:42:21.404Z,11.41
2016-09-06T02:43:21.425Z,11.41
2016-09-06T02:44:21.782Z,11.4
2016-09-06T02:45:21.566Z,11.4
2016-09-06T02:46:21.790Z,11.38
2016-09-06T02:47:21.529Z,11.38
2016-09-06T02:48:21.825Z,11.3
2016-09-06T02:49:21.849Z,11.35
2016-09-06T02:50:21.654Z,11.38
2016-09-06T02:51:21.905Z,11.45
2016-09-06T02:52:21.949Z,11.49
2016-09-06T02:53:21.635Z,11.59
2016-09-06T02:54:21.950Z,11.59
2016-09-06T02:55:21.965Z,11.53
2016-09-06T02:56:21.728Z,11.49
2016-09-06T02:57:22.009Z,11.58
2016-09-06T02:58:21.503Z,11.49
2016-09-06T02:59:22.079Z,11.43
2016-09-06T03:00:22.407Z,11.38
2016-09-06T03:01:22.094Z,11.37
2016-09-06T03:02:21.879Z,11.35
2016-09-06T03:03:21.836Z,11.38
2016-09-06T03:04:22.149Z,11.44
2016-09-06T03:05:22.166Z,11.41
2016-09-06T03:06:21.875Z,11.44
2016-09-06T03:07:21.905Z,11.45
2016-09-06T03:08:22.239Z,11.41
2016-09-06T03:09:22.246Z,11.41
2016-09-06T03:10:22.268Z,11.44
2016-09-06T03:11:22.024Z,11.37
2016-09-06T03:12:22.296Z,11.38
2016-09-06T03:13:22.338Z,11.4
2016-09-06T03:14:21.720Z,11.37
2016-09-06T03:15:22.361Z,11.34
2016-09-06T03:16:22.390Z,11.35
2016-09-06T03:17:22.424Z,11.2
2016-09-06T03:18:22.428Z,11.26
2016-09-06T03:19:22.546Z,11.19
2016-09-06T03:20:22.148Z,11.3
2016-09-06T03:21:22.490Z,11.31
2016-09-06T03:22:22.188Z,11.22
2016-09-06T03:23:21.895Z,11.27
2016-09-06T03:24:22.536Z,11.27
2016-09-06T03:25:22.259Z,11.26
2016-09-06T03:26:22.570Z,11.22
2016-09-06T03:27:22.607Z,11.22
2016-09-06T03:28:22.615Z,11.2
2016-09-06T03:29:22.648Z,11.34
2016-09-06T03:30:22.679Z,11.3
2016-09-06T03:31:22.376Z,11.23
2016-09-06T03:32:22.393Z,11.22
2016-09-06T03:33:22.406Z,11.3
2016-09-06T03:34:22.735Z,11.26
2016-09-06T03:35:22.463Z,11.2
2016-09-06T03:36:22.480Z,11.18
2016-09-06T03:37:22.787Z,11.2
2016-09-06T03:38:22.811Z,11.15
2016-09-06T03:39:22.534Z,11.04
2016-09-06T03:40:22.847Z,11.12
2016-09-06T03:41:22.866Z,11.13
2016-09-06T03:42:22.894Z,10.98
2016-09-06T03:43:22.923Z,11.01
2016-09-06T03:44:22.954Z,11.05
2016-09-06T03:45:22.638Z,11.1
2016-09-06T03:46:22.676Z,11
2016-09-06T03:47:23.003Z,10.98
2016-09-06T03:48:23.016Z,10.9
2016-09-06T03:49:23.051Z,11.02
2016-09-06T03:50:23.077Z,11.01
2016-09-06T03:51:23.075Z,10.87
2016-09-06T03:52:22.469Z,10.97
2016-09-06T03:53:23.106Z,10.95
2016-09-06T03:54:23.152Z,11
2016-09-06T03:55:22.838Z,10.97
2016-09-06T03:56:23.267Z,10.97
2016-09-06T03:57:23.194Z,10.92
2016-09-06T03:58:22.926Z,10.86
2016-09-06T03:59:22.918Z,10.83
2016-09-06T04:00:23.390Z,10.83
2016-09-06T04:01:23.275Z,10.86
2016-09-06T04:02:23.305Z,10.86
2016-09-06T04:03:23.308Z,10.87
2016-09-06T04:04:23.327Z,10.87
2016-09-06T04:05:23.337Z,10.89
2016-09-06T04:06:23.378Z,10.92
2016-09-06T04:07:23.844Z,10.87
2016-09-06T04:08:23.096Z,10.9
2016-09-06T04:09:23.502Z,10.8
2016-09-06T04:10:23.177Z,10.89
2016-09-06T04:11:23.799Z,10.87
2016-09-06T04:12:23.647Z,10.87
2016-09-06T04:13:23.518Z,10.98
2016-09-06T04:14:23.720Z,10.95
2016-09-06T04:15:23.710Z,10.84
2016-09-06T04:16:23.718Z,10.94
2016-09-06T04:17:23.674Z,11.02
2016-09-06T04:18:23.760Z,11.02
2016-09-06T04:19:23.763Z,11.04
2016-09-06T04:20:23.356Z,10.98
2016-09-06T04:21:23.346Z,11.04
2016-09-06T04:22:23.912Z,10.94
2016-09-06T04:23:23.760Z,10.98
2016-09-06T04:24:23.905Z,10.86
2016-09-06T04:25:23.781Z,10.89
2016-09-06T04:26:23.906Z,10.9
2016-09-06T04:27:23.780Z,10.9
2016-09-06T04:28:23.891Z,10.86
2016-09-06T04:29:23.815Z,10.86
2016-09-06T04:30:23.888Z,10.76
2016-09-06T04:31:23.926Z,10.76
2016-09-06T04:32:23.887Z,10.77
2016-09-06T04:33:24.023Z,10.72
2016-09-06T04:34:24.011Z,10.76
2016-09-06T04:35:23.435Z,10.79
2016-09-06T04:36:23.848Z,10.82
2016-09-06T04:37:23.983Z,10.8
2016-09-06T04:38:23.833Z,10.8
2016-09-06T04:39:24.021Z,10.69
2016-09-06T04:40:24.023Z,10.71
2016-09-06T04:41:24.046Z,10.8
2016-09-06T04:42:23.849Z,10.83
2016-09-06T04:43:24.081Z,10.79
2016-09-06T04:44:24.108Z,10.83
2016-09-06T04:45:24.137Z,10.77
2016-09-06T04:46:24.179Z,10.79
2016-09-06T04:47:24.259Z,10.86
2016-09-06T04:48:24.178Z,10.76
2016-09-06T04:49:24.215Z,10.71
2016-09-06T04:50:23.960Z,10.76
2016-09-06T04:51:24.247Z,10.69
2016-09-06T04:52:24.263Z,10.8
2016-09-06T04:53:23.987Z,10.71
2016-09-06T04:54:24.287Z,10.75
2016-09-06T04:55:24.017Z,10.83
2016-09-06T04:56:24.538Z,10.87
2016-09-06T04:57:24.360Z,10.83
2016-09-06T04:58:24.055Z,10.87
2016-09-06T04:59:24.520Z,10.9
2016-09-06T05:00:24.605Z,10.87
2016-09-06T05:01:24.126Z,10.89
2016-09-06T05:02:24.467Z,10.89
2016-09-06T05:03:24.465Z,10.87
2016-09-06T05:04:24.163Z,10.95
2016-09-06T05:05:24.509Z,11.01
2016-09-06T05:06:24.166Z,10.94
2016-09-06T05:07:24.242Z,10.92
2016-09-06T05:08:24.575Z,11.02
2016-09-06T05:09:24.577Z,11.02
2016-09-06T05:10:24.619Z,11.12
2016-09-06T05:11:24.642Z,11.07
2016-09-06T05:12:24.672Z,11.12
2016-09-06T05:13:24.671Z,11.16
2016-09-06T05:14:24.777Z,11.13
2016-09-06T05:15:24.387Z,11.19
2016-09-06T05:16:24.441Z,11.18
2016-09-06T05:17:24.741Z,11.2
2016-09-06T05:18:24.447Z,11.31
2016-09-06T05:19:24.469Z,11.35
2016-09-06T05:20:24.804Z,11.38
2016-09-06T05:21:24.813Z,11.41
2016-09-06T05:22:24.846Z,11.51
2016-09-06T05:23:24.882Z,11.48
2016-09-06T05:24:24.581Z,11.68
2016-09-06T05:25:24.911Z,11.74
2016-09-06T05:26:24.617Z,11.77
2016-09-06T05:27:24.304Z,11.83
2016-09-06T05:28:24.954Z,11.89
2016-09-06T05:29:24.679Z,11.96
2016-09-06T05:30:24.625Z,12.1
2016-09-06T05:31:25.029Z,12.2
2016-09-06T05:32:25.256Z,12.3
2016-09-06T05:33:25.064Z,12.36
2016-09-06T05:34:24.472Z,12.4
2016-09-06T05:35:24.472Z,12.48
2016-09-06T05:36:25.124Z,12.51
2016-09-06T05:37:25.156Z,12.61
2016-09-06T05:38:25.307Z,12.7
2016-09-06T05:39:24.874Z,12.7
2016-09-06T05:40:24.890Z,12.75
2016-09-06T05:41:25.233Z,12.81
2016-09-06T05:42:25.227Z,12.8
2016-09-06T05:43:24.948Z,12.94
2016-09-06T05:44:25.301Z,12.98
2016-09-06T05:45:25.001Z,12.88
2016-09-06T05:46:25.066Z,12.91
2016-09-06T05:47:25.026Z,12.98
2016-09-06T05:48:25.379Z,13.09
2016-09-06T05:49:25.068Z,13.06
2016-09-06T05:50:25.085Z,13.02
2016-09-06T05:51:25.416Z,13.21
2016-09-06T05:52:25.449Z,13.17
2016-09-06T05:53:25.472Z,13.24
2016-09-06T05:54:25.176Z,13.28
2016-09-06T05:55:25.532Z,13.28
2016-09-06T05:56:25.529Z,13.28
2016-09-06T05:57:25.229Z,13.21
2016-09-06T05:58:25.565Z,13.23
2016-09-06T05:59:25.588Z,13.24
2016-09-06T06:00:25.604Z,13.24
2016-09-06T06:01:25.621Z,13.36
2016-09-06T06:02:25.658Z,13.37
2016-09-06T06:03:25.725Z,13.45
2016-09-06T06:04:25.711Z,13.57
2016-09-06T06:05:25.597Z,13.73
2016-09-06T06:06:25.729Z,13.68
2016-09-06T06:07:25.749Z,13.86
2016-09-06T06:08:25.801Z,13.98
2016-09-06T06:09:25.793Z,14.08
2016-09-06T06:10:25.666Z,14.2
2016-09-06T06:11:25.838Z,14.37
2016-09-06T06:12:25.889Z,14.51
2016-09-06T06:13:25.579Z,14.62
2016-09-06T06:14:25.969Z,14.78
2016-09-06T06:15:25.976Z,14.87
2016-09-06T06:16:26.052Z,14.92
2016-09-06T06:17:26.031Z,14.94
2016-09-06T06:18:25.687Z,14.96
2016-09-06T06:19:25.685Z,15.05
2016-09-06T06:20:26.030Z,15.14
2016-09-06T06:21:26.049Z,15.3
2016-09-06T06:22:25.792Z,15.43
2016-09-06T06:23:26.112Z,15.52
2016-09-06T06:24:26.107Z,15.5
2016-09-06T06:25:25.829Z,15.73
2016-09-06T06:26:26.254Z,15.88
2016-09-06T06:27:26.202Z,15.99
2016-09-06T06:28:26.295Z,16.08
2016-09-06T06:29:26.320Z,16.17
2016-09-06T06:30:26.251Z,16.18
2016-09-06T06:31:26.276Z,16.29
2016-09-06T06:32:26.294Z,16.28
2016-09-06T06:33:26.010Z,16.47
2016-09-06T06:34:26.334Z,16.46
2016-09-06T06:35:26.356Z,16.54
2016-09-06T06:36:26.378Z,16.62
2016-09-06T06:37:26.548Z,16.62
2016-09-06T06:38:26.640Z,16.59
2016-09-06T06:39:26.549Z,16.51
2016-09-06T06:40:26.505Z,16.44
2016-09-06T06:41:26.527Z,16.43
2016-09-06T06:42:26.540Z,16.46
2016-09-06T06:43:26.234Z,16.47
2016-09-06T06:44:26.564Z,16.54
2016-09-06T06:45:26.289Z,16.72
2016-09-06T06:46:26.373Z,16.84
2016-09-06T06:47:26.648Z,16.98
2016-09-06T06:48:26.682Z,16.99
2016-09-06T06:49:26.693Z,17.05
2016-09-06T06:50:26.404Z,17.16
2016-09-06T06:51:26.725Z,17.19
2016-09-06T06:52:26.798Z,17.28
2016-09-06T06:53:26.469Z,17.46
2016-09-06T06:54:26.807Z,17.6
2016-09-06T06:55:26.839Z,17.71
2016-09-06T06:56:26.861Z,17.82
2016-09-06T06:57:26.568Z,17.82
2016-09-06T06:58:26.578Z,17.98
2016-09-06T06:59:26.813Z,18.19
2016-09-06T07:00:26.649Z,18.45
2016-09-06T07:01:27.160Z,18.66
2016-09-06T07:02:27.147Z,18.92
2016-09-06T07:03:26.849Z,19.17
2016-09-06T07:04:27.139Z,19.26
2016-09-06T07:05:27.608Z,19.45
2016-09-06T07:06:27.191Z,19.71
2016-09-06T07:07:27.177Z,19.87
2016-09-06T07:08:27.179Z,20.19
2016-09-06T07:09:27.218Z,20.48
2016-09-06T07:10:27.248Z,20.58
2016-09-06T07:11:27.218Z,20.75
2016-09-06T07:12:27.242Z,21.19
2016-09-06T07:13:27.268Z,21.5
2016-09-06T07:14:26.979Z,22.22
2016-09-06T07:15:27.307Z,22.84
2016-09-06T07:16:27.327Z,23.86
2016-09-06T07:17:27.367Z,24.71
2016-09-06T07:18:27.390Z,25.58
2016-09-06T07:19:27.427Z,26.18
2016-09-06T07:20:27.440Z,26.76
2016-09-06T07:21:27.465Z,27.3
2016-09-06T07:22:27.649Z,27.68
2016-09-06T07:23:27.257Z,27.85
2016-09-06T07:24:27.549Z,28.34
2016-09-06T07:25:27.280Z,28.72
2016-09-06T07:26:27.610Z,28.93
2016-09-06T07:27:27.637Z,29.25
2016-09-06T07:28:27.665Z,29.57
2016-09-06T07:29:27.687Z,29.47
2016-09-06T07:30:27.873Z,29.5
2016-09-06T07:31:27.754Z,29.55
2016-09-06T07:32:27.166Z,29.92
2016-09-06T07:33:27.898Z,30.14
2016-09-06T07:34:27.886Z,30.26
2016-09-06T07:35:27.553Z,30.35
2016-09-06T07:36:27.912Z,30.35
2016-09-06T07:37:27.620Z,30.33
2016-09-06T07:38:27.948Z,30.36
2016-09-06T07:39:27.989Z,30.43
2016-09-06T07:40:27.998Z,30.14
2016-09-06T07:41:27.782Z,29.99
2016-09-06T07:42:27.850Z,29.58
2016-09-06T07:43:27.894Z,28.77
2016-09-06T07:44:28.146Z,27.67
2016-09-06T07:45:28.183Z,26.52
2016-09-06T07:46:28.234Z,25.58
2016-09-06T07:47:28.225Z,24.65
2016-09-06T07:48:28.241Z,23.84
2016-09-06T07:49:28.287Z,23.04
2016-09-06T07:50:28.311Z,22.3
2016-09-06T07:51:28.330Z,21.81
2016-09-06T07:52:28.110Z,21.32
2016-09-06T07:53:28.418Z,21.07
2016-09-06T07:54:28.422Z,20.82
2016-09-06T07:55:28.440Z,20.59
2016-09-06T07:56:28.537Z,20.44
2016-09-06T07:57:28.501Z,20.3
2016-09-06T07:58:28.536Z,20.18
2016-09-06T07:59:28.583Z,19.94
2016-09-06T08:00:28.575Z,19.82
2016-09-06T08:01:28.609Z,19.85
2016-09-06T08:02:28.635Z,19.77
2016-09-06T08:03:28.443Z,19.77
2016-09-06T08:04:28.376Z,19.7
2016-09-06T08:05:28.760Z,19.72
2016-09-06T08:06:28.421Z,19.67
2016-09-06T08:07:28.447Z,19.72
2016-09-06T08:08:28.785Z,19.72
2016-09-06T08:09:28.829Z,19.66
2016-09-06T08:10:28.856Z,19.67
2016-09-06T08:11:28.857Z,19.66
2016-09-06T08:12:28.897Z,19.67
2016-09-06T08:13:28.922Z,19.64
2016-09-06T08:14:28.944Z,19.57
2016-09-06T08:15:28.954Z,19.53
2016-09-06T08:16:28.993Z,19.52
2016-09-06T08:17:28.716Z,19.63
2016-09-06T08:18:29.047Z,19.72
2016-09-06T08:19:29.075Z,19.78
2016-09-06T08:20:29.086Z,19.66
2016-09-06T08:21:29.126Z,19.77
2016-09-06T08:22:29.167Z,19.82
2016-09-06T08:23:28.864Z,19.81
2016-09-06T08:24:29.219Z,19.81
2016-09-06T08:25:29.243Z,19.78
2016-09-06T08:26:29.233Z,19.71
2016-09-06T08:27:29.368Z,19.75
2016-09-06T08:28:29.286Z,19.75
2016-09-06T08:29:29.342Z,19.84
2016-09-06T08:30:29.029Z,19.89
2016-09-06T08:31:29.407Z,19.94
2016-09-06T08:32:29.388Z,19.99
2016-09-06T08:33:29.093Z,20.03
2016-09-06T08:34:29.458Z,20.08
2016-09-06T08:35:29.486Z,19.97
2016-09-06T08:36:29.498Z,19.93
2016-09-06T08:37:29.529Z,20.03
2016-09-06T08:38:29.545Z,20.14
2016-09-06T08:39:29.262Z,20.19
2016-09-06T08:40:29.276Z,20.29
2016-09-06T08:41:29.613Z,20.22
2016-09-06T08:42:29.328Z,20.27
2016-09-06T08:43:29.368Z,20.39
2016-09-06T08:44:29.686Z,20.42
2016-09-06T08:45:29.411Z,20.49
2016-09-06T08:46:29.496Z,20.58
2016-09-06T08:47:29.764Z,20.64
2016-09-06T08:48:29.489Z,20.64
2016-09-06T08:49:29.499Z,20.63
2016-09-06T08:50:29.519Z,20.74
2016-09-06T08:51:29.560Z,20.77
2016-09-06T08:52:29.584Z,20.8
2016-09-06T08:53:29.612Z,20.8
2016-09-06T08:54:29.645Z,20.85
2016-09-06T08:55:29.654Z,20.88
2016-09-06T08:56:29.746Z,20.85
2016-09-06T08:57:30.026Z,20.86
2016-09-06T08:58:29.786Z,20.9
2016-09-06T08:59:29.830Z,20.92
2016-09-06T09:00:30.589Z,20.95
2016-09-06T09:01:30.321Z,20.9
2016-09-06T09:02:30.297Z,20.88
2016-09-06T09:03:29.998Z,20.85
2016-09-06T09:04:30.356Z,20.88
2016-09-06T09:05:30.314Z,20.92
2016-09-06T09:06:30.353Z,20.85
2016-09-06T09:07:30.328Z,20.89
2016-09-06T09:08:30.193Z,20.95
2016-09-06T09:09:30.626Z,20.96
2016-09-06T09:10:30.355Z,20.93
2016-09-06T09:11:30.581Z,21.05
2016-09-06T09:12:30.501Z,20.93
2016-09-06T09:13:30.584Z,20.86
2016-09-06T09:14:30.465Z,20.9
2016-09-06T09:15:30.729Z,21.01
2016-09-06T09:16:30.495Z,20.95
2016-09-06T09:17:30.583Z,21.07
2016-09-06T09:18:30.237Z,21.08
2016-09-06T09:19:30.319Z,21.03
2016-09-06T09:20:30.591Z,21.15
2016-09-06T09:21:30.634Z,21.15
2016-09-06T09:22:30.707Z,21.17
2016-09-06T09:23:30.690Z,21.17
2016-09-06T09:24:30.714Z,21.19
2016-09-06T09:25:30.736Z,21.23
2016-09-06T09:26:30.807Z,21.25
2016-09-06T09:27:30.580Z,21.26
2016-09-06T09:28:30.799Z,21.35
2016-09-06T09:29:30.823Z,21.29
2016-09-06T09:30:30.855Z,21.43
2016-09-06T09:31:30.566Z,21.45
2016-09-06T09:32:30.905Z,21.47
2016-09-06T09:33:30.656Z,21.45
2016-09-06T09:34:30.961Z,21.41
2016-09-06T09:35:31.143Z,21.47
2016-09-06T09:36:31.007Z,21.51
2016-09-06T09:37:31.056Z,21.56
2016-09-06T09:38:31.062Z,21.56
2016-09-06T09:39:30.765Z,21.56
2016-09-06T09:40:31.119Z,21.63
2016-09-06T09:41:31.115Z,21.68
2016-09-06T09:42:31.160Z,21.63
2016-09-06T09:43:31.191Z,21.6
2016-09-06T09:44:30.898Z,21.7
2016-09-06T09:45:31.222Z,21.78
2016-09-06T09:46:31.291Z,21.75
2016-09-06T09:47:31.294Z,21.74
2016-09-06T09:48:31.029Z,21.77
2016-09-06T09:49:31.336Z,21.75
2016-09-06T09:50:31.371Z,21.78
2016-09-06T09:51:31.373Z,21.83
2016-09-06T09:52:31.438Z,21.92
2016-09-06T09:53:31.453Z,21.96
2016-09-06T09:54:31.478Z,21.97
2016-09-06T09:55:31.569Z,21.85
2016-09-06T09:56:31.513Z,21.96
2016-09-06T09:57:31.637Z,21.99
2016-09-06T09:58:31.260Z,22.01
2016-09-06T09:59:31.598Z,22.08
2016-09-06T10:00:31.617Z,22.08
2016-09-06T10:01:31.635Z,22.06
2016-09-06T10:02:31.347Z,22.1
2016-09-06T10:03:31.819Z,22.06
2016-09-06T10:04:31.420Z,22.12
2016-09-06T10:05:31.448Z,22.12
2016-09-06T10:06:31.813Z,22.1
2016-09-06T10:07:31.801Z,22.19
2016-09-06T10:08:31.862Z,22.19
2016-09-06T10:09:31.854Z,22.25
2016-09-06T10:10:31.555Z,22.33
2016-09-06T10:11:31.618Z,22.25
2016-09-06T10:12:31.924Z,22.3
2016-09-06T10:13:31.668Z,22.31
2016-09-06T10:14:31.361Z,22.33
2016-09-06T10:15:31.697Z,22.37
2016-09-06T10:16:32.057Z,22.4
2016-09-06T10:17:32.167Z,22.38
2016-09-06T10:18:32.092Z,22.34
2016-09-06T10:19:32.117Z,22.38
2016-09-06T10:20:32.137Z,22.4
2016-09-06T10:21:32.193Z,22.47
2016-09-06T10:22:32.177Z,22.51
2016-09-06T10:23:32.208Z,22.58
2016-09-06T10:24:32.263Z,22.41
2016-09-06T10:25:31.985Z,22.43
2016-09-06T10:26:32.094Z,22.37
2016-09-06T10:27:32.325Z,22.44
2016-09-06T10:28:32.446Z,22.46
2016-09-06T10:29:32.376Z,22.44
2016-09-06T10:30:32.085Z,22.53
2016-09-06T10:31:32.168Z,22.44
2016-09-06T10:32:32.445Z,22.71
2016-09-06T10:33:32.180Z,22.77
2016-09-06T10:34:32.491Z,22.84
2016-09-06T10:35:32.552Z,22.92
2016-09-06T10:36:32.243Z,22.92
2016-09-06T10:38:32.305Z,23.07
2016-09-06T10:39:32.336Z,23.1
2016-09-06T10:40:32.710Z,23.18
2016-09-06T10:41:32.750Z,23.13
2016-09-06T10:42:32.715Z,23.32
2016-09-06T10:43:32.427Z,23.28
2016-09-06T10:44:32.453Z,23.14
2016-09-06T10:45:32.483Z,23.06
2016-09-06T10:46:32.806Z,23.02
2016-09-06T10:47:32.527Z,23.06
2016-09-06T10:48:32.618Z,23.13
2016-09-06T10:49:32.896Z,23.21
2016-09-06T10:50:32.926Z,23.25
2016-09-06T10:51:32.326Z,23.32
2016-09-06T10:52:32.655Z,23.33
2016-09-06T10:53:32.702Z,23.32
2016-09-06T10:54:33.033Z,23.29
2016-09-06T10:55:33.064Z,23.33
2016-09-06T10:56:32.477Z,23.39
2016-09-06T10:57:32.815Z,23.44
2016-09-06T10:58:33.137Z,23.47
2016-09-06T10:59:32.859Z,23.48
2016-09-06T11:00:33.214Z,23.52
2016-09-06T11:01:33.212Z,23.52
2016-09-06T11:02:33.244Z,23.45
2016-09-06T11:03:32.657Z,23.39
2016-09-06T11:04:33.007Z,23.29
2016-09-06T11:05:33.006Z,23.45
2016-09-06T11:06:33.358Z,23.4
2016-09-06T11:07:33.397Z,23.47
2016-09-06T11:08:33.554Z,23.63
2016-09-06T11:09:33.432Z,23.73
2016-09-06T11:10:33.453Z,23.85
2016-09-06T11:11:33.496Z,23.84
2016-09-06T11:12:33.205Z,23.95
2016-09-06T11:13:33.542Z,24
2016-09-06T11:14:33.577Z,23.96
2016-09-06T11:15:33.595Z,24.09
2016-09-06T11:16:33.384Z,24.18
2016-09-06T11:17:33.654Z,24.18
2016-09-06T11:18:33.365Z,24.47
2016-09-06T11:19:33.397Z,24.59
2016-09-06T11:20:33.736Z,24.65
2016-09-06T11:21:33.757Z,24.69
2016-09-06T11:22:33.464Z,24.74
2016-09-06T11:23:33.811Z,24.78
2016-09-06T11:24:33.837Z,24.77
2016-09-06T11:25:33.885Z,24.89
2016-09-06T11:26:33.887Z,25.01
2016-09-06T11:27:33.916Z,25.09
2016-09-06T11:28:33.656Z,25.15
2016-09-06T11:29:33.368Z,25.12
2016-09-06T11:30:33.697Z,25.15
2016-09-06T11:31:33.454Z,25.06
2016-09-06T11:32:34.065Z,25.01
2016-09-06T11:33:33.475Z,25.09
2016-09-06T11:34:34.127Z,25.06
2016-09-06T11:35:33.827Z,24.86
2016-09-06T11:36:33.960Z,24.99
2016-09-06T11:37:34.206Z,25.07
2016-09-06T11:38:33.943Z,25.33
2016-09-06T11:39:33.951Z,25.33
2016-09-06T11:40:34.374Z,25.58
2016-09-06T11:41:34.373Z,25.73
2016-09-06T11:42:34.335Z,25.92
2016-09-06T11:43:34.059Z,25.98
2016-09-06T11:44:34.074Z,26.03
2016-09-06T11:45:34.433Z,25.99
2016-09-06T11:46:34.454Z,25.93
2016-09-06T11:47:34.464Z,25.76
2016-09-06T11:48:34.197Z,25.78
2016-09-06T11:49:34.638Z,25.7
2016-09-06T11:50:34.262Z,25.78
2016-09-06T11:51:34.291Z,25.85
2016-09-06T11:52:34.676Z,25.85
2016-09-06T11:53:34.659Z,25.86
2016-09-06T11:54:34.677Z,25.95
2016-09-06T11:55:34.696Z,26.06
2016-09-06T11:56:34.715Z,26.04
2016-09-06T11:57:34.754Z,25.92
2016-09-06T11:58:34.488Z,25.78
2016-09-06T11:59:34.504Z,25.52
2016-09-06T12:00:34.837Z,25.29
2016-09-06T12:01:34.652Z,25.15
2016-09-06T12:02:34.886Z,25.06
2016-09-06T12:03:34.936Z,24.75
2016-09-06T12:04:34.644Z,24.75
2016-09-06T12:05:34.976Z,24.74
2016-09-06T12:06:34.686Z,24.79
2016-09-06T12:07:34.733Z,24.86
2016-09-06T12:08:35.074Z,24.99
2016-09-06T12:09:35.092Z,25.09
2016-09-06T12:10:35.139Z,25.25
2016-09-06T12:11:35.155Z,25.54
2016-09-06T12:12:34.554Z,25.66
2016-09-06T12:13:34.899Z,25.8
2016-09-06T12:14:34.923Z,26.01
2016-09-06T12:15:35.254Z,26.23
2016-09-06T12:16:34.664Z,26.52
2016-09-06T12:17:35.336Z,26.66
2016-09-06T12:18:35.038Z,26.76
2016-09-06T12:19:35.065Z,26.59
2016-09-06T12:20:35.082Z,26.46
2016-09-06T12:21:35.117Z,26.31
2016-09-06T12:22:35.465Z,26.1
2016-09-06T12:23:35.533Z,26.24
2016-09-06T12:24:35.215Z,26.31
2016-09-06T12:25:35.545Z,26.42
2016-09-06T12:26:35.572Z,26.53
2016-09-06T12:27:35.289Z,26.61
2016-09-06T12:28:35.332Z,26.73
2016-09-06T12:29:35.686Z,26.89
2016-09-06T12:30:35.688Z,26.93
2016-09-06T12:31:35.762Z,27.04
2016-09-06T12:32:35.736Z,27.15
2016-09-06T12:33:35.786Z,27.11
2016-09-06T12:34:35.484Z,27.15
2016-09-06T12:35:35.548Z,27.19
2016-09-06T12:36:35.246Z,27.11
2016-09-06T12:37:35.888Z,26.98
2016-09-06T12:38:35.305Z,26.85
2016-09-06T12:39:35.944Z,26.83
2016-09-06T12:40:36.036Z,26.55
2016-09-06T12:41:35.694Z,26.44
2016-09-06T12:42:36.095Z,26.33
2016-09-06T12:43:36.056Z,26.44
2016-09-06T12:44:36.245Z,26.52
2016-09-06T12:45:36.125Z,26.55
2016-09-06T12:46:35.836Z,26.76
2016-09-06T12:47:36.179Z,26.86
2016-09-06T12:48:36.212Z,27.05
2016-09-06T12:49:36.236Z,27.04
2016-09-06T12:50:36.276Z,27.1
2016-09-06T12:51:36.295Z,27.18
2016-09-06T12:52:36.019Z,27.47
2016-09-06T12:53:36.347Z,27.52
2016-09-06T12:54:36.426Z,27.6
2016-09-06T12:55:36.099Z,27.75
2016-09-06T12:56:36.434Z,27.81